sensor_id;sensor_type;location;lat;lon;timestamp;P1;durP1;ratioP1;P2;durP2;ratioP2
46723;SDS011;32463;48.298;11.620;2022-11-20T00:01:08;7.97;;;5.00;;
46723;SDS011;32463;48.298;11.620;2022-11-20T00:03:36;6.55;;;4.57;;
46723;SDS011;32463;48.298;11.620;2022-11-20T00:06:03;7.35;;;4.47;;
46723;SDS011;32463;48.298;11.620;2022-11-20T00:08:32;7.75;;;4.78;;
46723;SDS011;32463;48.298;11.620;2022-11-20T00:11:03;7.68;;;4.88;;
46723;SDS011;32463;48.298;11.620;2022-11-20T00:13:33;7.38;;;4.53;;
46723;SDS011;32463;48.298;11.620;2022-11-20T00:16:01;9.82;;;5.05;;
46723;SDS011;32463;48.298;11.620;2022-11-20T00:18:32;8.40;;;5.07;;
46723;SDS011;32463;48.298;11.620;2022-11-20T00:21:18;8.57;;;4.65;;
46723;SDS011;32463;48.298;11.620;2022-11-20T00:23:49;8.05;;;4.65;;
46723;SDS011;32463;48.298;11.620;2022-11-20T00:26:17;7.85;;;5.20;;
46723;SDS011;32463;48.298;11.620;2022-11-20T00:28:52;8.32;;;4.95;;
46723;SDS011;32463;48.298;11.620;2022-11-20T00:31:20;8.07;;;4.82;;
46723;SDS011;32463;48.298;11.620;2022-11-20T00:33:48;7.25;;;4.75;;
46723;SDS011;32463;48.298;11.620;2022-11-20T00:36:18;8.57;;;5.00;;
46723;SDS011;32463;48.298;11.620;2022-11-20T00:38:46;8.20;;;4.95;;
46723;SDS011;32463;48.298;11.620;2022-11-20T00:41:17;8.35;;;5.22;;
46723;SDS011;32463;48.298;11.620;2022-11-20T00:43:43;9.75;;;5.30;;
46723;SDS011;32463;48.298;11.620;2022-11-20T00:48:38;10.00;;;5.47;;
46723;SDS011;32463;48.298;11.620;2022-11-20T00:51:05;9.40;;;5.55;;
46723;SDS011;32463;48.298;11.620;2022-11-20T00:53:33;7.20;;;5.07;;
46723;SDS011;32463;48.298;11.620;2022-11-20T00:56:00;9.90;;;5.13;;
46723;SDS011;32463;48.298;11.620;2022-11-20T00:58:29;8.50;;;4.72;;
46723;SDS011;32463;48.298;11.620;2022-11-20T01:01:04;8.35;;;5.03;;
46723;SDS011;32463;48.298;11.620;2022-11-20T01:03:31;8.23;;;5.10;;
46723;SDS011;32463;48.298;11.620;2022-11-20T01:06:02;11.10;;;5.15;;
46723;SDS011;32463;48.298;11.620;2022-11-20T01:08:31;8.95;;;5.25;;
46723;SDS011;32463;48.298;11.620;2022-11-20T01:10:59;7.53;;;5.28;;
46723;SDS011;32463;48.298;11.620;2022-11-20T01:13:28;8.30;;;5.30;;
46723;SDS011;32463;48.298;11.620;2022-11-20T01:18:37;10.50;;;4.78;;
46723;SDS011;32463;48.298;11.620;2022-11-20T01:21:06;9.95;;;4.95;;
46723;SDS011;32463;48.298;11.620;2022-11-20T01:23:35;8.45;;;4.88;;
46723;SDS011;32463;48.298;11.620;2022-11-20T01:26:04;8.77;;;4.95;;
46723;SDS011;32463;48.298;11.620;2022-11-20T01:28:33;7.28;;;4.85;;
46723;SDS011;32463;48.298;11.620;2022-11-20T01:31:00;7.35;;;4.90;;
46723;SDS011;32463;48.298;11.620;2022-11-20T01:33:27;8.00;;;4.55;;
46723;SDS011;32463;48.298;11.620;2022-11-20T01:36:02;7.75;;;4.95;;
46723;SDS011;32463;48.298;11.620;2022-11-20T01:38:30;7.53;;;4.88;;
46723;SDS011;32463;48.298;11.620;2022-11-20T01:40:56;9.05;;;4.75;;
46723;SDS011;32463;48.298;11.620;2022-11-20T01:43:23;7.45;;;4.82;;
46723;SDS011;32463;48.298;11.620;2022-11-20T01:48:22;7.55;;;4.45;;
46723;SDS011;32463;48.298;11.620;2022-11-20T01:50:51;6.40;;;4.50;;
46723;SDS011;32463;48.298;11.620;2022-11-20T01:53:20;7.80;;;4.55;;
46723;SDS011;32463;48.298;11.620;2022-11-20T01:55:51;10.10;;;4.70;;
46723;SDS011;32463;48.298;11.620;2022-11-20T01:58:22;8.30;;;4.97;;
46723;SDS011;32463;48.298;11.620;2022-11-20T02:00:52;8.93;;;4.78;;
46723;SDS011;32463;48.298;11.620;2022-11-20T02:03:19;7.95;;;4.50;;
46723;SDS011;32463;48.298;11.620;2022-11-20T02:05:51;9.15;;;4.70;;
46723;SDS011;32463;48.298;11.620;2022-11-20T02:08:23;10.13;;;4.75;;
46723;SDS011;32463;48.298;11.620;2022-11-20T02:10:49;7.38;;;4.47;;
46723;SDS011;32463;48.298;11.620;2022-11-20T02:13:16;9.10;;;4.70;;
46723;SDS011;32463;48.298;11.620;2022-11-20T02:16:00;9.02;;;4.60;;
46723;SDS011;32463;48.298;11.620;2022-11-20T02:18:27;7.07;;;4.60;;
46723;SDS011;32463;48.298;11.620;2022-11-20T02:21:09;9.38;;;4.60;;
46723;SDS011;32463;48.298;11.620;2022-11-20T02:24:04;8.57;;;4.50;;
46723;SDS011;32463;48.298;11.620;2022-11-20T02:26:35;9.30;;;4.68;;
46723;SDS011;32463;48.298;11.620;2022-11-20T02:30:07;10.32;;;5.03;;
46723;SDS011;32463;48.298;11.620;2022-11-20T02:34:56;9.50;;;5.07;;
46723;SDS011;32463;48.298;11.620;2022-11-20T02:37:23;8.80;;;4.70;;
46723;SDS011;32463;48.298;11.620;2022-11-20T02:39:58;8.18;;;4.78;;
46723;SDS011;32463;48.298;11.620;2022-11-20T02:42:25;8.38;;;5.15;;
46723;SDS011;32463;48.298;11.620;2022-11-20T02:44:51;8.65;;;5.32;;
46723;SDS011;32463;48.298;11.620;2022-11-20T02:47:18;8.35;;;5.20;;
46723;SDS011;32463;48.298;11.620;2022-11-20T02:49:44;7.70;;;5.18;;
46723;SDS011;32463;48.298;11.620;2022-11-20T02:52:10;8.43;;;5.40;;
46723;SDS011;32463;48.298;11.620;2022-11-20T02:54:37;6.50;;;4.50;;
46723;SDS011;32463;48.298;11.620;2022-11-20T02:57:03;11.57;;;5.50;;
46723;SDS011;32463;48.298;11.620;2022-11-20T02:59:30;7.18;;;4.75;;
46723;SDS011;32463;48.298;11.620;2022-11-20T03:01:56;8.48;;;5.00;;
46723;SDS011;32463;48.298;11.620;2022-11-20T03:04:22;8.43;;;5.07;;
46723;SDS011;32463;48.298;11.620;2022-11-20T03:06:49;7.78;;;5.10;;
46723;SDS011;32463;48.298;11.620;2022-11-20T03:09:15;7.85;;;5.28;;
46723;SDS011;32463;48.298;11.620;2022-11-20T03:11:42;7.45;;;4.93;;
46723;SDS011;32463;48.298;11.620;2022-11-20T03:14:08;8.13;;;5.38;;
46723;SDS011;32463;48.298;11.620;2022-11-20T03:16:35;10.40;;;5.32;;
46723;SDS011;32463;48.298;11.620;2022-11-20T03:19:02;9.05;;;4.90;;
46723;SDS011;32463;48.298;11.620;2022-11-20T03:21:29;9.80;;;5.40;;
46723;SDS011;32463;48.298;11.620;2022-11-20T03:23:56;7.80;;;5.30;;
46723;SDS011;32463;48.298;11.620;2022-11-20T03:26:23;7.85;;;5.40;;
46723;SDS011;32463;48.298;11.620;2022-11-20T03:28:52;7.68;;;4.88;;
46723;SDS011;32463;48.298;11.620;2022-11-20T03:31:21;7.65;;;5.00;;
46723;SDS011;32463;48.298;11.620;2022-11-20T03:33:50;8.25;;;4.95;;
46723;SDS011;32463;48.298;11.620;2022-11-20T03:36:17;10.55;;;4.78;;
46723;SDS011;32463;48.298;11.620;2022-11-20T03:38:45;9.02;;;4.82;;
46723;SDS011;32463;48.298;11.620;2022-11-20T03:41:13;8.48;;;4.60;;
46723;SDS011;32463;48.298;11.620;2022-11-20T03:43:41;6.30;;;4.38;;
46723;SDS011;32463;48.298;11.620;2022-11-20T03:46:08;7.38;;;4.47;;
46723;SDS011;32463;48.298;11.620;2022-11-20T03:48:34;6.63;;;4.50;;
46723;SDS011;32463;48.298;11.620;2022-11-20T03:51:11;5.78;;;4.25;;
46723;SDS011;32463;48.298;11.620;2022-11-20T03:53:39;8.50;;;4.68;;
46723;SDS011;32463;48.298;11.620;2022-11-20T03:56:06;5.80;;;4.40;;
46723;SDS011;32463;48.298;11.620;2022-11-20T03:58:36;8.05;;;4.97;;
46723;SDS011;32463;48.298;11.620;2022-11-20T04:01:08;7.00;;;4.50;;
46723;SDS011;32463;48.298;11.620;2022-11-20T04:03:37;6.10;;;4.43;;
46723;SDS011;32463;48.298;11.620;2022-11-20T04:06:06;6.43;;;3.92;;
46723;SDS011;32463;48.298;11.620;2022-11-20T04:08:45;8.38;;;4.50;;
46723;SDS011;32463;48.298;11.620;2022-11-20T04:11:13;8.23;;;4.47;;
46723;SDS011;32463;48.298;11.620;2022-11-20T04:13:41;6.15;;;4.00;;
46723;SDS011;32463;48.298;11.620;2022-11-20T04:16:09;7.72;;;4.15;;
46723;SDS011;32463;48.298;11.620;2022-11-20T04:18:35;7.72;;;3.83;;
46723;SDS011;32463;48.298;11.620;2022-11-20T04:21:03;5.07;;;3.63;;
46723;SDS011;32463;48.298;11.620;2022-11-20T04:23:30;6.38;;;4.10;;
46723;SDS011;32463;48.298;11.620;2022-11-20T04:28:34;5.05;;;3.78;;
46723;SDS011;32463;48.298;11.620;2022-11-20T04:31:02;7.38;;;3.88;;
46723;SDS011;32463;48.298;11.620;2022-11-20T04:33:33;6.50;;;3.45;;
46723;SDS011;32463;48.298;11.620;2022-11-20T04:36:00;6.03;;;3.38;;
46723;SDS011;32463;48.298;11.620;2022-11-20T04:38:31;5.93;;;4.03;;
46723;SDS011;32463;48.298;11.620;2022-11-20T04:40:58;7.75;;;3.95;;
46723;SDS011;32463;48.298;11.620;2022-11-20T04:43:26;6.43;;;3.03;;
46723;SDS011;32463;48.298;11.620;2022-11-20T04:45:53;5.57;;;3.80;;
46723;SDS011;32463;48.298;11.620;2022-11-20T04:48:20;6.72;;;3.50;;
46723;SDS011;32463;48.298;11.620;2022-11-20T04:50:47;4.97;;;3.50;;
46723;SDS011;32463;48.298;11.620;2022-11-20T04:53:13;5.90;;;3.22;;
46723;SDS011;32463;48.298;11.620;2022-11-20T04:55:40;5.43;;;3.55;;
46723;SDS011;32463;48.298;11.620;2022-11-20T04:58:07;4.85;;;3.20;;
46723;SDS011;32463;48.298;11.620;2022-11-20T05:00:33;4.88;;;3.67;;
46723;SDS011;32463;48.298;11.620;2022-11-20T05:02:59;7.20;;;3.88;;
46723;SDS011;32463;48.298;11.620;2022-11-20T05:05:26;6.53;;;3.58;;
46723;SDS011;32463;48.298;11.620;2022-11-20T05:07:53;7.00;;;3.60;;
46723;SDS011;32463;48.298;11.620;2022-11-20T05:10:21;5.70;;;3.50;;
46723;SDS011;32463;48.298;11.620;2022-11-20T05:12:48;6.20;;;3.55;;
46723;SDS011;32463;48.298;11.620;2022-11-20T05:15:14;5.03;;;3.78;;
46723;SDS011;32463;48.298;11.620;2022-11-20T05:17:41;5.65;;;4.10;;
46723;SDS011;32463;48.298;11.620;2022-11-20T05:20:07;6.93;;;3.63;;
46723;SDS011;32463;48.298;11.620;2022-11-20T05:22:34;5.45;;;3.42;;
46723;SDS011;32463;48.298;11.620;2022-11-20T05:25:00;4.80;;;3.28;;
46723;SDS011;32463;48.298;11.620;2022-11-20T05:27:27;5.35;;;3.70;;
46723;SDS011;32463;48.298;11.620;2022-11-20T05:29:53;13.05;;;3.80;;
46723;SDS011;32463;48.298;11.620;2022-11-20T05:32:20;5.22;;;3.60;;
46723;SDS011;32463;48.298;11.620;2022-11-20T05:34:46;6.20;;;3.63;;
46723;SDS011;32463;48.298;11.620;2022-11-20T05:37:12;6.63;;;3.70;;
46723;SDS011;32463;48.298;11.620;2022-11-20T05:39:39;6.25;;;3.70;;
46723;SDS011;32463;48.298;11.620;2022-11-20T05:42:05;6.65;;;3.72;;
46723;SDS011;32463;48.298;11.620;2022-11-20T05:44:49;5.50;;;3.42;;
46723;SDS011;32463;48.298;11.620;2022-11-20T05:47:15;6.15;;;3.25;;
46723;SDS011;32463;48.298;11.620;2022-11-20T05:49:42;5.80;;;3.20;;
46723;SDS011;32463;48.298;11.620;2022-11-20T05:52:08;5.32;;;3.58;;
46723;SDS011;32463;48.298;11.620;2022-11-20T05:54:34;5.40;;;3.00;;
46723;SDS011;32463;48.298;11.620;2022-11-20T05:57:01;7.03;;;3.35;;
46723;SDS011;32463;48.298;11.620;2022-11-20T05:59:27;5.80;;;3.38;;
46723;SDS011;32463;48.298;11.620;2022-11-20T06:01:54;6.43;;;3.40;;
46723;SDS011;32463;48.298;11.620;2022-11-20T06:04:20;5.75;;;3.75;;
46723;SDS011;32463;48.298;11.620;2022-11-20T06:06:47;5.15;;;3.35;;
46723;SDS011;32463;48.298;11.620;2022-11-20T06:09:13;5.05;;;3.20;;
46723;SDS011;32463;48.298;11.620;2022-11-20T06:11:39;4.80;;;3.03;;
46723;SDS011;32463;48.298;11.620;2022-11-20T06:14:06;4.40;;;3.10;;
46723;SDS011;32463;48.298;11.620;2022-11-20T06:16:32;5.47;;;3.28;;
46723;SDS011;32463;48.298;11.620;2022-11-20T06:18:59;4.78;;;3.10;;
46723;SDS011;32463;48.298;11.620;2022-11-20T06:21:25;4.65;;;3.28;;
46723;SDS011;32463;48.298;11.620;2022-11-20T06:23:52;5.40;;;3.38;;
46723;SDS011;32463;48.298;11.620;2022-11-20T06:26:23;6.60;;;3.20;;
46723;SDS011;32463;48.298;11.620;2022-11-20T06:28:51;5.30;;;2.93;;
46723;SDS011;32463;48.298;11.620;2022-11-20T06:31:19;6.75;;;3.30;;
46723;SDS011;32463;48.298;11.620;2022-11-20T06:33:48;4.30;;;2.72;;
46723;SDS011;32463;48.298;11.620;2022-11-20T06:36:17;5.18;;;2.97;;
46723;SDS011;32463;48.298;11.620;2022-11-20T06:38:46;6.60;;;2.80;;
46723;SDS011;32463;48.298;11.620;2022-11-20T06:41:16;4.20;;;2.55;;
46723;SDS011;32463;48.298;11.620;2022-11-20T06:43:44;4.35;;;2.80;;
46723;SDS011;32463;48.298;11.620;2022-11-20T06:46:11;4.22;;;2.90;;
46723;SDS011;32463;48.298;11.620;2022-11-20T06:48:39;4.78;;;2.53;;
46723;SDS011;32463;48.298;11.620;2022-11-20T06:51:06;3.40;;;2.30;;
46723;SDS011;32463;48.298;11.620;2022-11-20T06:53:33;4.05;;;2.80;;
46723;SDS011;32463;48.298;11.620;2022-11-20T06:56:01;7.53;;;3.55;;
46723;SDS011;32463;48.298;11.620;2022-11-20T06:58:29;3.45;;;2.40;;
46723;SDS011;32463;48.298;11.620;2022-11-20T07:01:00;4.40;;;2.50;;
46723;SDS011;32463;48.298;11.620;2022-11-20T07:03:28;4.47;;;2.63;;
46723;SDS011;32463;48.298;11.620;2022-11-20T07:05:55;4.13;;;2.67;;
46723;SDS011;32463;48.298;11.620;2022-11-20T07:08:22;4.25;;;2.60;;
46723;SDS011;32463;48.298;11.620;2022-11-20T07:10:49;4.80;;;2.42;;
46723;SDS011;32463;48.298;11.620;2022-11-20T07:13:15;3.88;;;2.78;;
46723;SDS011;32463;48.298;11.620;2022-11-20T07:15:42;5.25;;;3.15;;
46723;SDS011;32463;48.298;11.620;2022-11-20T07:18:09;6.60;;;2.88;;
46723;SDS011;32463;48.298;11.620;2022-11-20T07:20:36;5.35;;;3.03;;
46723;SDS011;32463;48.298;11.620;2022-11-20T07:23:02;4.28;;;2.90;;
46723;SDS011;32463;48.298;11.620;2022-11-20T07:25:29;4.95;;;3.00;;
46723;SDS011;32463;48.298;11.620;2022-11-20T07:27:59;4.50;;;3.00;;
46723;SDS011;32463;48.298;11.620;2022-11-20T07:30:26;4.22;;;2.45;;
46723;SDS011;32463;48.298;11.620;2022-11-20T07:32:54;4.70;;;2.53;;
46723;SDS011;32463;48.298;11.620;2022-11-20T07:35:21;3.50;;;2.33;;
46723;SDS011;32463;48.298;11.620;2022-11-20T07:37:48;4.03;;;2.50;;
46723;SDS011;32463;48.298;11.620;2022-11-20T07:40:15;4.03;;;2.50;;
46723;SDS011;32463;48.298;11.620;2022-11-20T07:42:53;6.57;;;2.63;;
46723;SDS011;32463;48.298;11.620;2022-11-20T07:45:22;5.43;;;2.90;;
46723;SDS011;32463;48.298;11.620;2022-11-20T07:47:50;4.32;;;2.70;;
46723;SDS011;32463;48.298;11.620;2022-11-20T07:50:17;4.97;;;2.58;;
46723;SDS011;32463;48.298;11.620;2022-11-20T07:52:44;3.75;;;2.35;;
46723;SDS011;32463;48.298;11.620;2022-11-20T07:55:11;4.90;;;2.50;;
46723;SDS011;32463;48.298;11.620;2022-11-20T07:57:37;5.68;;;2.92;;
46723;SDS011;32463;48.298;11.620;2022-11-20T08:00:04;5.40;;;2.80;;
46723;SDS011;32463;48.298;11.620;2022-11-20T08:02:33;4.82;;;2.58;;
46723;SDS011;32463;48.298;11.620;2022-11-20T08:05:00;4.93;;;2.88;;
46723;SDS011;32463;48.298;11.620;2022-11-20T08:07:26;4.28;;;2.70;;
46723;SDS011;32463;48.298;11.620;2022-11-20T08:09:53;4.65;;;2.63;;
46723;SDS011;32463;48.298;11.620;2022-11-20T08:12:20;5.15;;;2.45;;
46723;SDS011;32463;48.298;11.620;2022-11-20T08:15:05;5.50;;;2.65;;
46723;SDS011;32463;48.298;11.620;2022-11-20T08:17:32;4.47;;;2.42;;
46723;SDS011;32463;48.298;11.620;2022-11-20T08:19:58;6.78;;;2.75;;
46723;SDS011;32463;48.298;11.620;2022-11-20T08:22:25;6.13;;;2.25;;
46723;SDS011;32463;48.298;11.620;2022-11-20T08:24:51;5.03;;;2.50;;
46723;SDS011;32463;48.298;11.620;2022-11-20T08:27:17;3.55;;;2.50;;
46723;SDS011;32463;48.298;11.620;2022-11-20T08:29:44;4.10;;;2.72;;
46723;SDS011;32463;48.298;11.620;2022-11-20T08:32:10;3.92;;;2.80;;
46723;SDS011;32463;48.298;11.620;2022-11-20T08:34:37;4.95;;;2.92;;
46723;SDS011;32463;48.298;11.620;2022-11-20T08:37:03;4.53;;;2.80;;
46723;SDS011;32463;48.298;11.620;2022-11-20T08:39:30;4.53;;;2.80;;
46723;SDS011;32463;48.298;11.620;2022-11-20T08:41:57;3.95;;;2.55;;
46723;SDS011;32463;48.298;11.620;2022-11-20T08:44:23;3.80;;;2.70;;
46723;SDS011;32463;48.298;11.620;2022-11-20T08:46:50;4.97;;;2.75;;
46723;SDS011;32463;48.298;11.620;2022-11-20T08:49:16;5.18;;;2.60;;
46723;SDS011;32463;48.298;11.620;2022-11-20T08:51:43;4.65;;;3.00;;
46723;SDS011;32463;48.298;11.620;2022-11-20T08:54:10;4.47;;;3.47;;
46723;SDS011;32463;48.298;11.620;2022-11-20T08:56:37;4.90;;;3.25;;
46723;SDS011;32463;48.298;11.620;2022-11-20T08:59:03;5.00;;;2.90;;
46723;SDS011;32463;48.298;11.620;2022-11-20T09:01:30;5.00;;;3.30;;
46723;SDS011;32463;48.298;11.620;2022-11-20T09:03:56;4.80;;;3.10;;
46723;SDS011;32463;48.298;11.620;2022-11-20T09:06:24;5.75;;;3.00;;
46723;SDS011;32463;48.298;11.620;2022-11-20T09:08:52;3.72;;;2.80;;
46723;SDS011;32463;48.298;11.620;2022-11-20T09:11:19;4.43;;;3.03;;
46723;SDS011;32463;48.298;11.620;2022-11-20T09:13:45;4.07;;;2.95;;
46723;SDS011;32463;48.298;11.620;2022-11-20T09:16:11;3.63;;;2.58;;
46723;SDS011;32463;48.298;11.620;2022-11-20T09:18:38;5.38;;;3.03;;
46723;SDS011;32463;48.298;11.620;2022-11-20T09:21:05;4.88;;;2.70;;
46723;SDS011;32463;48.298;11.620;2022-11-20T09:23:35;3.80;;;2.55;;
46723;SDS011;32463;48.298;11.620;2022-11-20T09:26:05;3.97;;;2.72;;
46723;SDS011;32463;48.298;11.620;2022-11-20T09:28:33;5.57;;;2.42;;
46723;SDS011;32463;48.298;11.620;2022-11-20T09:30:59;3.58;;;2.50;;
46723;SDS011;32463;48.298;11.620;2022-11-20T09:33:26;5.10;;;2.42;;
46723;SDS011;32463;48.298;11.620;2022-11-20T09:35:53;5.13;;;2.58;;
46723;SDS011;32463;48.298;11.620;2022-11-20T09:38:19;6.32;;;4.00;;
46723;SDS011;32463;48.298;11.620;2022-11-20T09:40:52;5.00;;;3.05;;
46723;SDS011;32463;48.298;11.620;2022-11-20T09:45:56;5.65;;;3.10;;
46723;SDS011;32463;48.298;11.620;2022-11-20T09:48:26;5.10;;;3.50;;
46723;SDS011;32463;48.298;11.620;2022-11-20T09:56:27;6.28;;;3.20;;
46723;SDS011;32463;48.298;11.620;2022-11-20T09:58:55;5.53;;;2.80;;
46723;SDS011;32463;48.298;11.620;2022-11-20T10:01:26;5.57;;;2.70;;
46723;SDS011;32463;48.298;11.620;2022-11-20T10:03:58;4.40;;;2.58;;
46723;SDS011;32463;48.298;11.620;2022-11-20T10:06:41;6.38;;;2.55;;
46723;SDS011;32463;48.298;11.620;2022-11-20T10:14:39;4.82;;;2.40;;
46723;SDS011;32463;48.298;11.620;2022-11-20T10:19:55;5.40;;;2.65;;
46723;SDS011;32463;48.298;11.620;2022-11-20T10:25:14;5.53;;;2.72;;
46723;SDS011;32463;48.298;11.620;2022-11-20T10:30:55;4.40;;;2.63;;
46723;SDS011;32463;48.298;11.620;2022-11-20T10:33:27;4.25;;;3.05;;
46723;SDS011;32463;48.298;11.620;2022-11-20T10:38:53;4.22;;;2.92;;
46723;SDS011;32463;48.298;11.620;2022-11-20T10:41:24;3.88;;;2.33;;
46723;SDS011;32463;48.298;11.620;2022-11-20T10:46:43;6.65;;;2.97;;
46723;SDS011;32463;48.298;11.620;2022-11-20T10:49:17;5.13;;;3.30;;
46723;SDS011;32463;48.298;11.620;2022-11-20T10:54:53;5.65;;;2.13;;
46723;SDS011;32463;48.298;11.620;2022-11-20T11:00:25;5.53;;;2.00;;
46723;SDS011;32463;48.298;11.620;2022-11-20T11:02:52;4.32;;;2.00;;
46723;SDS011;32463;48.298;11.620;2022-11-20T11:05:31;6.82;;;2.17;;
46723;SDS011;32463;48.298;11.620;2022-11-20T11:08:16;2.65;;;1.75;;
46723;SDS011;32463;48.298;11.620;2022-11-20T11:10:51;4.10;;;1.85;;
46723;SDS011;32463;48.298;11.620;2022-11-20T11:13:24;5.00;;;2.75;;
46723;SDS011;32463;48.298;11.620;2022-11-20T11:15:52;3.38;;;2.00;;
46723;SDS011;32463;48.298;11.620;2022-11-20T11:18:23;4.50;;;1.80;;
46723;SDS011;32463;48.298;11.620;2022-11-20T11:20:50;2.67;;;1.73;;
46723;SDS011;32463;48.298;11.620;2022-11-20T11:23:27;2.72;;;1.70;;
46723;SDS011;32463;48.298;11.620;2022-11-20T11:26:03;3.60;;;1.60;;
46723;SDS011;32463;48.298;11.620;2022-11-20T11:28:31;3.15;;;1.80;;
46723;SDS011;32463;48.298;11.620;2022-11-20T11:30:58;3.25;;;1.55;;
46723;SDS011;32463;48.298;11.620;2022-11-20T11:33:26;3.35;;;1.60;;
46723;SDS011;32463;48.298;11.620;2022-11-20T11:36:03;3.85;;;1.60;;
46723;SDS011;32463;48.298;11.620;2022-11-20T11:38:42;4.80;;;1.48;;
46723;SDS011;32463;48.298;11.620;2022-11-20T11:41:15;4.30;;;1.50;;
46723;SDS011;32463;48.298;11.620;2022-11-20T11:43:52;3.65;;;1.50;;
46723;SDS011;32463;48.298;11.620;2022-11-20T11:46:38;3.35;;;1.50;;
46723;SDS011;32463;48.298;11.620;2022-11-20T11:57:00;2.92;;;1.75;;
46723;SDS011;32463;48.298;11.620;2022-11-20T12:02:32;5.22;;;2.90;;
46723;SDS011;32463;48.298;11.620;2022-11-20T12:07:38;8.00;;;3.83;;
46723;SDS011;32463;48.298;11.620;2022-11-20T12:10:14;3.25;;;2.47;;
46723;SDS011;32463;48.298;11.620;2022-11-20T12:12:46;3.42;;;2.20;;
46723;SDS011;32463;48.298;11.620;2022-11-20T12:15:29;4.13;;;1.60;;
46723;SDS011;32463;48.298;11.620;2022-11-20T12:17:59;2.80;;;1.67;;
46723;SDS011;32463;48.298;11.620;2022-11-20T12:20:28;3.67;;;1.60;;
46723;SDS011;32463;48.298;11.620;2022-11-20T12:25:36;2.42;;;1.60;;
46723;SDS011;32463;48.298;11.620;2022-11-20T12:28:19;1.98;;;1.45;;
46723;SDS011;32463;48.298;11.620;2022-11-20T12:41:49;2.78;;;1.60;;
46723;SDS011;32463;48.298;11.620;2022-11-20T13:01:29;2.25;;;1.40;;
46723;SDS011;32463;48.298;11.620;2022-11-20T13:06:55;2.75;;;1.85;;
46723;SDS011;32463;48.298;11.620;2022-11-20T13:09:22;2.85;;;1.77;;
46723;SDS011;32463;48.298;11.620;2022-11-20T13:17:09;3.67;;;2.60;;
46723;SDS011;32463;48.298;11.620;2022-11-20T13:19:40;5.28;;;2.95;;
46723;SDS011;32463;48.298;11.620;2022-11-20T13:22:08;4.57;;;2.00;;
46723;SDS011;32463;48.298;11.620;2022-11-20T13:24:34;3.55;;;2.03;;
46723;SDS011;32463;48.298;11.620;2022-11-20T13:29:34;3.97;;;1.65;;
46723;SDS011;32463;48.298;11.620;2022-11-20T13:32:06;3.33;;;1.77;;
46723;SDS011;32463;48.298;11.620;2022-11-20T13:34:50;3.47;;;1.80;;
46723;SDS011;32463;48.298;11.620;2022-11-20T13:37:34;3.97;;;1.65;;
46723;SDS011;32463;48.298;11.620;2022-11-20T13:42:35;2.80;;;1.73;;
46723;SDS011;32463;48.298;11.620;2022-11-20T13:45:10;2.90;;;1.75;;
46723;SDS011;32463;48.298;11.620;2022-11-20T13:47:50;3.60;;;1.83;;
46723;SDS011;32463;48.298;11.620;2022-11-20T13:50:18;3.78;;;2.05;;
46723;SDS011;32463;48.298;11.620;2022-11-20T13:52:50;4.00;;;2.10;;
46723;SDS011;32463;48.298;11.620;2022-11-20T13:55:46;2.20;;;1.48;;
46723;SDS011;32463;48.298;11.620;2022-11-20T13:58:27;4.22;;;1.80;;
46723;SDS011;32463;48.298;11.620;2022-11-20T14:01:20;3.50;;;1.85;;
46723;SDS011;32463;48.298;11.620;2022-11-20T14:03:49;3.65;;;2.10;;
46723;SDS011;32463;48.298;11.620;2022-11-20T14:06:39;4.32;;;2.10;;
46723;SDS011;32463;48.298;11.620;2022-11-20T14:09:24;3.55;;;1.83;;
46723;SDS011;32463;48.298;11.620;2022-11-20T14:11:52;4.28;;;1.60;;
46723;SDS011;32463;48.298;11.620;2022-11-20T14:14:20;2.20;;;1.65;;
46723;SDS011;32463;48.298;11.620;2022-11-20T14:16:51;3.40;;;1.73;;
46723;SDS011;32463;48.298;11.620;2022-11-20T14:21:55;3.70;;;2.10;;
46723;SDS011;32463;48.298;11.620;2022-11-20T14:24:36;3.40;;;1.95;;
46723;SDS011;32463;48.298;11.620;2022-11-20T14:27:03;2.72;;;1.92;;
46723;SDS011;32463;48.298;11.620;2022-11-20T14:29:34;4.40;;;1.95;;
46723;SDS011;32463;48.298;11.620;2022-11-20T14:32:02;3.92;;;1.75;;
46723;SDS011;32463;48.298;11.620;2022-11-20T14:34:30;3.13;;;1.60;;
46723;SDS011;32463;48.298;11.620;2022-11-20T14:37:01;3.25;;;1.90;;
46723;SDS011;32463;48.298;11.620;2022-11-20T14:39:33;3.78;;;1.90;;
46723;SDS011;32463;48.298;11.620;2022-11-20T14:42:01;3.30;;;1.87;;
46723;SDS011;32463;48.298;11.620;2022-11-20T14:44:39;3.88;;;1.80;;
46723;SDS011;32463;48.298;11.620;2022-11-20T14:47:05;3.17;;;2.05;;
46723;SDS011;32463;48.298;11.620;2022-11-20T14:49:32;3.95;;;1.92;;
46723;SDS011;32463;48.298;11.620;2022-11-20T14:52:00;5.90;;;3.92;;
46723;SDS011;32463;48.298;11.620;2022-11-20T14:54:28;3.05;;;1.98;;
46723;SDS011;32463;48.298;11.620;2022-11-20T14:59:30;3.20;;;1.88;;
46723;SDS011;32463;48.298;11.620;2022-11-20T15:02:07;2.58;;;1.80;;
46723;SDS011;32463;48.298;11.620;2022-11-20T15:04:45;4.47;;;2.33;;
46723;SDS011;32463;48.298;11.620;2022-11-20T15:07:22;5.05;;;2.10;;
46723;SDS011;32463;48.298;11.620;2022-11-20T15:12:30;3.10;;;2.10;;
46723;SDS011;32463;48.298;11.620;2022-11-20T15:14:59;3.88;;;1.90;;
46723;SDS011;32463;48.298;11.620;2022-11-20T15:17:27;3.95;;;2.10;;
46723;SDS011;32463;48.298;11.620;2022-11-20T15:19:54;5.05;;;2.15;;
46723;SDS011;32463;48.298;11.620;2022-11-20T15:22:21;5.57;;;2.15;;
46723;SDS011;32463;48.298;11.620;2022-11-20T15:24:47;2.35;;;1.40;;
46723;SDS011;32463;48.298;11.620;2022-11-20T15:27:14;5.45;;;1.83;;
46723;SDS011;32463;48.298;11.620;2022-11-20T15:29:41;4.05;;;1.80;;
46723;SDS011;32463;48.298;11.620;2022-11-20T15:32:08;3.08;;;1.50;;
46723;SDS011;32463;48.298;11.620;2022-11-20T15:34:35;2.53;;;1.52;;
46723;SDS011;32463;48.298;11.620;2022-11-20T15:37:01;2.50;;;1.50;;
46723;SDS011;32463;48.298;11.620;2022-11-20T15:39:27;1.83;;;1.30;;
46723;SDS011;32463;48.298;11.620;2022-11-20T15:41:54;2.85;;;1.50;;
46723;SDS011;32463;48.298;11.620;2022-11-20T15:44:21;7.82;;;1.70;;
46723;SDS011;32463;48.298;11.620;2022-11-20T15:46:47;3.45;;;1.63;;
46723;SDS011;32463;48.298;11.620;2022-11-20T15:49:15;1.75;;;1.17;;
46723;SDS011;32463;48.298;11.620;2022-11-20T15:51:44;3.97;;;1.52;;
46723;SDS011;32463;48.298;11.620;2022-11-20T15:54:17;2.67;;;1.40;;
46723;SDS011;32463;48.298;11.620;2022-11-20T15:56:49;3.47;;;1.27;;
46723;SDS011;32463;48.298;11.620;2022-11-20T15:59:17;1.45;;;0.90;;
46723;SDS011;32463;48.298;11.620;2022-11-20T16:01:44;2.80;;;1.08;;
46723;SDS011;32463;48.298;11.620;2022-11-20T16:04:11;1.95;;;1.20;;
46723;SDS011;32463;48.298;11.620;2022-11-20T16:06:39;4.38;;;1.02;;
46723;SDS011;32463;48.298;11.620;2022-11-20T16:09:05;1.85;;;1.30;;
46723;SDS011;32463;48.298;11.620;2022-11-20T16:11:32;1.50;;;0.98;;
46723;SDS011;32463;48.298;11.620;2022-11-20T16:14:00;1.95;;;1.10;;
46723;SDS011;32463;48.298;11.620;2022-11-20T16:16:44;2.58;;;1.20;;
46723;SDS011;32463;48.298;11.620;2022-11-20T16:19:11;3.10;;;1.30;;
46723;SDS011;32463;48.298;11.620;2022-11-20T16:21:39;1.52;;;1.20;;
46723;SDS011;32463;48.298;11.620;2022-11-20T16:24:06;3.35;;;1.20;;
46723;SDS011;32463;48.298;11.620;2022-11-20T16:26:35;4.57;;;1.52;;
46723;SDS011;32463;48.298;11.620;2022-11-20T16:29:03;2.17;;;1.38;;
46723;SDS011;32463;48.298;11.620;2022-11-20T16:31:31;1.73;;;1.15;;
46723;SDS011;32463;48.298;11.620;2022-11-20T16:33:59;3.40;;;1.60;;
46723;SDS011;32463;48.298;11.620;2022-11-20T16:36:28;5.25;;;1.80;;
46723;SDS011;32463;48.298;11.620;2022-11-20T16:38:57;5.03;;;2.60;;